sensor_id;sensor_type;location;lat;lon;timestamp;pressure;altitude;pressure_sealevel;temperature;humidity
72798;BME280;61084;55.816;37.036;2022-07-06T00:01:30;99379.31;;;18.73;63.80
72798;BME280;61084;55.816;37.036;2022-07-06T00:03:56;99386.59;;;18.71;63.56
72798;BME280;61084;55.816;37.036;2022-07-06T00:06:23;99382.22;;;18.70;63.33
72798;BME280;61084;55.816;37.036;2022-07-06T00:08:49;99387.53;;;18.70;63.72
72798;BME280;61084;55.816;37.036;2022-07-06T00:11:15;99391.19;;;18.69;63.27
72798;BME280;61084;55.816;37.036;2022-07-06T00:13:42;99382.50;;;18.67;63.47
72798;BME280;61084;55.816;37.036;2022-07-06T00:16:08;99378.16;;;18.66;63.65
72798;BME280;61084;55.816;37.036;2022-07-06T00:18:33;99374.66;;;18.66;63.56
72798;BME280;61084;55.816;37.036;2022-07-06T00:20:59;99367.66;;;18.65;63.58
72798;BME280;61084;55.816;37.036;2022-07-06T00:23:25;99366.09;;;18.62;63.66
72798;BME280;61084;55.816;37.036;2022-07-06T00:25:51;99353.78;;;18.61;63.75
72798;BME280;61084;55.816;37.036;2022-07-06T00:28:17;99353.09;;;18.59;64.25
72798;BME280;61084;55.816;37.036;2022-07-06T00:30:42;99360.47;;;18.56;64.13
72798;BME280;61084;55.816;37.036;2022-07-06T00:33:08;99366.63;;;18.56;63.99
72798;BME280;61084;55.816;37.036;2022-07-06T00:35:34;99360.47;;;18.56;64.07
72798;BME280;61084;55.816;37.036;2022-07-06T00:38:01;99362.41;;;18.54;63.93
72798;BME280;61084;55.816;37.036;2022-07-06T00:40:27;99365.06;;;18.54;64.00
72798;BME280;61084;55.816;37.036;2022-07-06T00:42:52;99369.69;;;18.52;63.95
72798;BME280;61084;55.816;37.036;2022-07-06T00:45:19;99364.50;;;18.50;64.28
72798;BME280;61084;55.816;37.036;2022-07-06T00:47:45;99371.78;;;18.48;64.26
72798;BME280;61084;55.816;37.036;2022-07-06T00:50:14;99373.84;;;18.45;64.52
72798;BME280;61084;55.816;37.036;2022-07-06T00:52:42;99374.69;;;18.45;64.43
72798;BME280;61084;55.816;37.036;2022-07-06T00:55:12;99385.31;;;18.45;64.43
72798;BME280;61084;55.816;37.036;2022-07-06T00:57:39;99379.03;;;18.46;64.25
72798;BME280;61084;55.816;37.036;2022-07-06T01:00:07;99384.47;;;18.45;64.23
72798;BME280;61084;55.816;37.036;2022-07-06T01:02:35;99385.44;;;18.44;64.25
72798;BME280;61084;55.816;37.036;2022-07-06T01:05:02;99381.91;;;18.43;64.35
72798;BME280;61084;55.816;37.036;2022-07-06T01:07:30;99382.75;;;18.44;64.20
72798;BME280;61084;55.816;37.036;2022-07-06T01:09:56;99380.22;;;18.42;64.06
72798;BME280;61084;55.816;37.036;2022-07-06T01:12:22;99379.25;;;18.43;64.24
72798;BME280;61084;55.816;37.036;2022-07-06T01:14:48;99377.44;;;18.44;64.76
72798;BME280;61084;55.816;37.036;2022-07-06T01:17:15;99380.22;;;18.42;64.10
72798;BME280;61084;55.816;37.036;2022-07-06T01:19:41;99390.28;;;18.39;64.20
72798;BME280;61084;55.816;37.036;2022-07-06T01:22:08;99382.44;;;18.37;64.10
72798;BME280;61084;55.816;37.036;2022-07-06T01:24:38;99391.50;;;18.35;64.64
72798;BME280;61084;55.816;37.036;2022-07-06T01:27:05;99388.84;;;18.35;64.59
72798;BME280;61084;55.816;37.036;2022-07-06T01:29:34;99396.69;;;18.36;64.38
72798;BME280;61084;55.816;37.036;2022-07-06T01:32:00;99390.66;;;18.34;64.54
72798;BME280;61084;55.816;37.036;2022-07-06T01:34:27;99389.81;;;18.34;64.61
72798;BME280;61084;55.816;37.036;2022-07-06T01:36:53;99395.03;;;18.35;64.63
72798;BME280;61084;55.816;37.036;2022-07-06T01:39:20;99399.34;;;18.36;64.83
72798;BME280;61084;55.816;37.036;2022-07-06T01:41:46;99406.47;;;18.36;64.75
72798;BME280;61084;55.816;37.036;2022-07-06T01:44:12;99405.66;;;18.35;64.93
72798;BME280;61084;55.816;37.036;2022-07-06T01:46:38;99406.47;;;18.36;65.78
72798;BME280;61084;55.816;37.036;2022-07-06T01:49:05;99407.19;;;18.38;65.11
72798;BME280;61084;55.816;37.036;2022-07-06T01:51:32;99403.72;;;18.37;65.11
72798;BME280;61084;55.816;37.036;2022-07-06T01:53:58;99409.84;;;18.38;65.56
72798;BME280;61084;55.816;37.036;2022-07-06T01:56:25;99402.00;;;18.36;65.17
72798;BME280;61084;55.816;37.036;2022-07-06T01:58:56;99408.19;;;18.37;64.92
72798;BME280;61084;55.816;37.036;2022-07-06T02:01:23;99402.00;;;18.36;64.89
72798;BME280;61084;55.816;37.036;2022-07-06T02:03:49;99398.50;;;18.36;64.89
72798;BME280;61084;55.816;37.036;2022-07-06T02:06:15;99402.84;;;18.37;65.01
72798;BME280;61084;55.816;37.036;2022-07-06T02:08:45;99403.00;;;18.35;64.92
72798;BME280;61084;55.816;37.036;2022-07-06T02:11:11;99405.50;;;18.37;65.16
72798;BME280;61084;55.816;37.036;2022-07-06T02:13:39;99408.19;;;18.37;65.19
72798;BME280;61084;55.816;37.036;2022-07-06T02:16:26;99409.97;;;18.36;65.27
72798;BME280;61084;55.816;37.036;2022-07-06T02:18:52;99408.03;;;18.38;65.58
72798;BME280;61084;55.816;37.036;2022-07-06T02:21:18;99406.09;;;18.40;65.39
72798;BME280;61084;55.816;37.036;2022-07-06T02:23:45;99405.72;;;18.45;65.36
72798;BME280;61084;55.816;37.036;2022-07-06T02:26:11;99400.03;;;18.49;65.42
72798;BME280;61084;55.816;37.036;2022-07-06T02:28:38;99398.78;;;18.53;65.70
72798;BME280;61084;55.816;37.036;2022-07-06T02:31:05;99396.59;;;18.58;65.79
72798;BME280;61084;55.816;37.036;2022-07-06T02:33:31;99398.59;;;18.66;65.64
72798;BME280;61084;55.816;37.036;2022-07-06T02:35:58;99402.69;;;18.70;65.92
72798;BME280;61084;55.816;37.036;2022-07-06T02:38:24;99399.47;;;18.76;66.25
72798;BME280;61084;55.816;37.036;2022-07-06T02:40:50;99400.66;;;18.83;66.12
72798;BME280;61084;55.816;37.036;2022-07-06T02:43:16;99400.81;;;18.91;66.78
72798;BME280;61084;55.816;37.036;2022-07-06T02:45:42;99387.97;;;18.96;66.57
72798;BME280;61084;55.816;37.036;2022-07-06T02:48:10;99387.28;;;19.04;66.33
72798;BME280;61084;55.816;37.036;2022-07-06T02:50:35;99383.25;;;19.09;66.53
72798;BME280;61084;55.816;37.036;2022-07-06T02:53:01;99383.25;;;19.19;66.57
72798;BME280;61084;55.816;37.036;2022-07-06T02:55:30;99382.59;;;19.26;66.95
72798;BME280;61084;55.816;37.036;2022-07-06T02:57:56;99383.47;;;19.36;66.82
72798;BME280;61084;55.816;37.036;2022-07-06T03:00:23;99391.50;;;19.46;66.84
72798;BME280;61084;55.816;37.036;2022-07-06T03:02:49;99390.78;;;19.53;66.52
72798;BME280;61084;55.816;37.036;2022-07-06T03:05:15;99387.31;;;19.63;66.52
72798;BME280;61084;55.816;37.036;2022-07-06T03:07:41;99391.81;;;19.72;66.53
72798;BME280;61084;55.816;37.036;2022-07-06T03:10:08;99393.66;;;19.81;66.66
72798;BME280;61084;55.816;37.036;2022-07-06T03:12:34;99398.00;;;19.91;66.42
72798;BME280;61084;55.816;37.036;2022-07-06T03:15:00;99396.47;;;19.98;66.62
72798;BME280;61084;55.816;37.036;2022-07-06T03:17:29;99398.41;;;20.06;66.61
72798;BME280;61084;55.816;37.036;2022-07-06T03:19:55;99399.38;;;20.14;66.37
72798;BME280;61084;55.816;37.036;2022-07-06T03:22:22;99406.72;;;20.22;66.58
72798;BME280;61084;55.816;37.036;2022-07-06T03:24:48;99400.81;;;20.28;66.77
72798;BME280;61084;55.816;37.036;2022-07-06T03:27:15;99406.28;;;20.36;66.71
72798;BME280;61084;55.816;37.036;2022-07-06T03:29:41;99400.22;;;20.44;66.70
72798;BME280;61084;55.816;37.036;2022-07-06T03:32:07;99399.22;;;20.54;66.42
72798;BME280;61084;55.816;37.036;2022-07-06T03:34:34;99401.88;;;20.64;66.36
72798;BME280;61084;55.816;37.036;2022-07-06T03:37:00;99401.31;;;20.70;66.55
72798;BME280;61084;55.816;37.036;2022-07-06T03:39:26;99404.75;;;20.80;66.38
72798;BME280;61084;55.816;37.036;2022-07-06T03:41:52;99409.94;;;20.91;66.91
72798;BME280;61084;55.816;37.036;2022-07-06T03:44:19;99404.84;;;20.97;66.33
72798;BME280;61084;55.816;37.036;2022-07-06T03:46:45;99400.34;;;21.08;65.92
72798;BME280;61084;55.816;37.036;2022-07-06T03:49:12;99398.63;;;21.16;65.73
72798;BME280;61084;55.816;37.036;2022-07-06T03:51:38;99408.56;;;21.24;65.85
72798;BME280;61084;55.816;37.036;2022-07-06T03:54:05;99405.44;;;21.28;65.59
72798;BME280;61084;55.816;37.036;2022-07-06T03:56:31;99406.53;;;21.35;65.58
72798;BME280;61084;55.816;37.036;2022-07-06T03:59:12;99404.34;;;21.48;65.76
72798;BME280;61084;55.816;37.036;2022-07-06T04:01:38;99404.97;;;21.60;65.21
72798;BME280;61084;55.816;37.036;2022-07-06T04:04:08;99399.84;;;21.66;65.46
72798;BME280;61084;55.816;37.036;2022-07-06T04:06:37;99396.13;;;21.77;65.53
72798;BME280;61084;55.816;37.036;2022-07-06T04:09:05;99388.94;;;21.87;65.22
72798;BME280;61084;55.816;37.036;2022-07-06T04:11:31;99390.22;;;22.01;65.59
72798;BME280;61084;55.816;37.036;2022-07-06T04:13:57;99390.00;;;22.12;64.46
72798;BME280;61084;55.816;37.036;2022-07-06T04:16:23;99387.22;;;22.21;64.87
72798;BME280;61084;55.816;37.036;2022-07-06T04:18:50;99383.63;;;22.30;64.35
72798;BME280;61084;55.816;37.036;2022-07-06T04:21:16;99389.56;;;22.42;64.22
72798;BME280;61084;55.816;37.036;2022-07-06T04:23:42;99376.91;;;22.52;63.78
72798;BME280;61084;55.816;37.036;2022-07-06T04:26:09;99375.00;;;22.62;64.01
72798;BME280;61084;55.816;37.036;2022-07-06T04:28:37;99375.41;;;22.75;63.89
72798;BME280;61084;55.816;37.036;2022-07-06T04:31:03;99371.13;;;22.90;63.51
72798;BME280;61084;55.816;37.036;2022-07-06T04:33:29;99379.56;;;23.03;63.77
72798;BME280;61084;55.816;37.036;2022-07-06T04:35:56;99379.78;;;23.10;63.37
72798;BME280;61084;55.816;37.036;2022-07-06T04:38:27;99374.28;;;23.19;62.86
72798;BME280;61084;55.816;37.036;2022-07-06T04:43:21;99382.63;;;23.42;62.55
72798;BME280;61084;55.816;37.036;2022-07-06T04:45:47;99384.97;;;23.53;62.20
72798;BME280;61084;55.816;37.036;2022-07-06T04:48:13;99382.53;;;23.68;62.53
72798;BME280;61084;55.816;37.036;2022-07-06T04:50:39;99382.34;;;23.77;62.03
72798;BME280;61084;55.816;37.036;2022-07-06T04:53:07;99381.22;;;23.88;61.61
72798;BME280;61084;55.816;37.036;2022-07-06T04:55:34;99375.50;;;23.99;61.38
72798;BME280;61084;55.816;37.036;2022-07-06T04:58:00;99377.06;;;24.10;61.56
72798;BME280;61084;55.816;37.036;2022-07-06T05:00:26;99371.19;;;24.22;61.45
72798;BME280;61084;55.816;37.036;2022-07-06T05:02:53;99378.22;;;24.39;61.09
72798;BME280;61084;55.816;37.036;2022-07-06T05:05:22;99372.16;;;24.53;60.88
72798;BME280;61084;55.816;37.036;2022-07-06T05:07:49;99374.81;;;24.69;60.59
72798;BME280;61084;55.816;37.036;2022-07-06T05:10:15;99371.63;;;24.82;60.64
72798;BME280;61084;55.816;37.036;2022-07-06T05:12:45;99369.09;;;24.97;60.75
72798;BME280;61084;55.816;37.036;2022-07-06T05:15:12;99360.28;;;25.11;60.03
72798;BME280;61084;55.816;37.036;2022-07-06T05:17:37;99362.25;;;25.25;60.07
72798;BME280;61084;55.816;37.036;2022-07-06T05:20:05;99364.84;;;25.41;59.46
72798;BME280;61084;55.816;37.036;2022-07-06T05:22:33;99359.28;;;25.51;59.62
72798;BME280;61084;55.816;37.036;2022-07-06T05:25:00;99364.28;;;25.62;58.96
72798;BME280;61084;55.816;37.036;2022-07-06T05:27:26;99359.50;;;25.72;58.48
72798;BME280;61084;55.816;37.036;2022-07-06T05:29:53;99369.53;;;25.78;58.56
72798;BME280;61084;55.816;37.036;2022-07-06T05:32:19;99356.56;;;25.81;57.80
72798;BME280;61084;55.816;37.036;2022-07-06T05:34:45;99365.44;;;25.90;57.91
72798;BME280;61084;55.816;37.036;2022-07-06T05:37:11;99362.97;;;26.03;57.57
72798;BME280;61084;55.816;37.036;2022-07-06T05:39:37;99372.97;;;26.17;57.73
72798;BME280;61084;55.816;37.036;2022-07-06T05:42:04;99365.13;;;26.30;57.28
72798;BME280;61084;55.816;37.036;2022-07-06T05:44:33;99371.25;;;26.39;56.59
72798;BME280;61084;55.816;37.036;2022-07-06T05:46:59;99361.63;;;26.44;56.38
72798;BME280;61084;55.816;37.036;2022-07-06T05:49:46;99362.84;;;26.56;55.97
72798;BME280;61084;55.816;37.036;2022-07-06T05:52:31;99367.34;;;26.64;56.41
72798;BME280;61084;55.816;37.036;2022-07-06T05:54:56;99367.44;;;26.70;56.08
72798;BME280;61084;55.816;37.036;2022-07-06T05:57:22;99365.69;;;26.77;55.75
72798;BME280;61084;55.816;37.036;2022-07-06T05:59:48;99364.13;;;26.83;55.86
72798;BME280;61084;55.816;37.036;2022-07-06T06:02:15;99367.34;;;26.93;55.58
72798;BME280;61084;55.816;37.036;2022-07-06T06:04:41;99365.25;;;27.03;54.92
72798;BME280;61084;55.816;37.036;2022-07-06T06:07:07;99364.50;;;27.09;54.83
72798;BME280;61084;55.816;37.036;2022-07-06T06:09:32;99360.66;;;27.18;54.88
72798;BME280;61084;55.816;37.036;2022-07-06T06:11:58;99360.34;;;27.28;54.71
72798;BME280;61084;55.816;37.036;2022-07-06T06:14:24;99368.84;;;27.39;54.67
72798;BME280;61084;55.816;37.036;2022-07-06T06:16:51;99367.50;;;27.50;54.33
72798;BME280;61084;55.816;37.036;2022-07-06T06:19:17;99359.94;;;27.60;54.34
72798;BME280;61084;55.816;37.036;2022-07-06T06:21:43;99361.50;;;27.69;54.04
72798;BME280;61084;55.816;37.036;2022-07-06T06:24:08;99361.28;;;27.85;53.80
72798;BME280;61084;55.816;37.036;2022-07-06T06:26:34;99360.97;;;27.95;53.17
72798;BME280;61084;55.816;37.036;2022-07-06T06:28:59;99351.66;;;27.97;52.06
72798;BME280;61084;55.816;37.036;2022-07-06T06:31:25;99367.47;;;28.00;52.70
72798;BME280;61084;55.816;37.036;2022-07-06T06:34:10;99358.66;;;28.13;52.25
72798;BME280;61084;55.816;37.036;2022-07-06T06:36:35;99365.41;;;28.23;52.15
72798;BME280;61084;55.816;37.036;2022-07-06T06:39:01;99366.34;;;28.37;51.97
72798;BME280;61084;55.816;37.036;2022-07-06T06:41:27;99363.28;;;28.40;51.43
72798;BME280;61084;55.816;37.036;2022-07-06T06:43:53;99360.16;;;28.43;51.59
72798;BME280;61084;55.816;37.036;2022-07-06T06:46:23;99365.19;;;28.46;51.35
72798;BME280;61084;55.816;37.036;2022-07-06T06:48:49;99363.69;;;28.44;50.96
72798;BME280;61084;55.816;37.036;2022-07-06T06:51:15;99364.81;;;28.49;51.02
72798;BME280;61084;55.816;37.036;2022-07-06T06:53:40;99365.88;;;28.55;51.11
72798;BME280;61084;55.816;37.036;2022-07-06T06:56:07;99357.75;;;28.55;50.57
72798;BME280;61084;55.816;37.036;2022-07-06T06:58:32;99363.38;;;28.53;50.76
72798;BME280;61084;55.816;37.036;2022-07-06T07:00:58;99355.91;;;28.55;50.97
72798;BME280;61084;55.816;37.036;2022-07-06T07:03:25;99356.84;;;28.69;51.07
72798;BME280;61084;55.816;37.036;2022-07-06T07:05:50;99356.13;;;28.81;50.67
72798;BME280;61084;55.816;37.036;2022-07-06T07:08:16;99352.41;;;28.89;49.96
72798;BME280;61084;55.816;37.036;2022-07-06T07:10:42;99358.31;;;28.99;49.80
72798;BME280;61084;55.816;37.036;2022-07-06T07:13:08;99348.34;;;29.06;49.76
72798;BME280;61084;55.816;37.036;2022-07-06T07:15:33;99353.34;;;29.09;49.49
72798;BME280;61084;55.816;37.036;2022-07-06T07:17:59;99362.78;;;29.20;49.40
72798;BME280;61084;55.816;37.036;2022-07-06T07:20:25;99360.34;;;29.31;49.12
72798;BME280;61084;55.816;37.036;2022-07-06T07:22:51;99359.19;;;29.47;48.96
72798;BME280;61084;55.816;37.036;2022-07-06T07:25:16;99355.19;;;29.49;48.32
72798;BME280;61084;55.816;37.036;2022-07-06T07:27:42;99360.03;;;29.60;48.66
72798;BME280;61084;55.816;37.036;2022-07-06T07:30:08;99357.34;;;29.73;48.04
72798;BME280;61084;55.816;37.036;2022-07-06T07:32:34;99353.91;;;29.79;47.29
72798;BME280;61084;55.816;37.036;2022-07-06T07:35:00;99349.94;;;29.89;47.48
72798;BME280;61084;55.816;37.036;2022-07-06T07:37:28;99351.81;;;29.88;47.22
72798;BME280;61084;55.816;37.036;2022-07-06T07:39:54;99356.41;;;29.94;47.13
72798;BME280;61084;55.816;37.036;2022-07-06T07:42:20;99355.16;;;29.97;46.68
72798;BME280;61084;55.816;37.036;2022-07-06T07:44:45;99353.28;;;30.04;46.93
72798;BME280;61084;55.816;37.036;2022-07-06T07:47:11;99352.66;;;30.08;46.60
72798;BME280;61084;55.816;37.036;2022-07-06T07:49:37;99353.94;;;30.19;46.41
72798;BME280;61084;55.816;37.036;2022-07-06T07:52:03;99352.88;;;30.26;46.59
72798;BME280;61084;55.816;37.036;2022-07-06T07:54:29;99353.13;;;30.38;46.07
72798;BME280;61084;55.816;37.036;2022-07-06T07:56:54;99348.34;;;30.46;45.84
72798;BME280;61084;55.816;37.036;2022-07-06T07:59:20;99354.59;;;30.53;45.74
72798;BME280;61084;55.816;37.036;2022-07-06T08:01:46;99354.59;;;30.67;46.53
72798;BME280;61084;55.816;37.036;2022-07-06T08:04:12;99354.34;;;30.81;45.78
72798;BME280;61084;55.816;37.036;2022-07-06T08:06:38;99352.25;;;30.83;46.00
72798;BME280;61084;55.816;37.036;2022-07-06T08:09:03;99352.88;;;30.79;44.89
72798;BME280;61084;55.816;37.036;2022-07-06T08:11:30;99333.50;;;30.82;44.99
72798;BME280;61084;55.816;37.036;2022-07-06T08:13:56;99347.88;;;30.89;45.36
72798;BME280;61084;55.816;37.036;2022-07-06T08:16:21;99352.03;;;30.98;45.10
72798;BME280;61084;55.816;37.036;2022-07-06T08:18:47;99352.22;;;31.03;45.33
72798;BME280;61084;55.816;37.036;2022-07-06T08:21:13;99356.38;;;31.12;44.91
72798;BME280;61084;55.816;37.036;2022-07-06T08:23:39;99345.50;;;31.18;45.02
72798;BME280;61084;55.816;37.036;2022-07-06T08:26:04;99340.88;;;31.25;44.64
72798;BME280;61084;55.816;37.036;2022-07-06T08:28:30;99347.72;;;31.35;44.29
72798;BME280;61084;55.816;37.036;2022-07-06T08:30:56;99347.91;;;31.40;44.18
72798;BME280;61084;55.816;37.036;2022-07-06T08:33:23;99344.59;;;31.44;44.51
72798;BME280;61084;55.816;37.036;2022-07-06T08:35:49;99352.91;;;31.49;43.69
72798;BME280;61084;55.816;37.036;2022-07-06T08:38:14;99357.06;;;31.52;44.03
72798;BME280;61084;55.816;37.036;2022-07-06T08:40:40;99352.91;;;31.49;43.53
72798;BME280;61084;55.816;37.036;2022-07-06T08:43:08;99356.47;;;31.43;44.03
72798;BME280;61084;55.816;37.036;2022-07-06T08:45:34;99350.22;;;31.49;43.48
72798;BME280;61084;55.816;37.036;2022-07-06T08:48:04;99348.47;;;31.61;44.03
72798;BME280;61084;55.816;37.036;2022-07-06T08:50:32;99338.44;;;31.62;44.38
72798;BME280;61084;55.816;37.036;2022-07-06T08:52:58;99342.34;;;31.72;44.17
72798;BME280;61084;55.816;37.036;2022-07-06T08:55:26;99343.94;;;31.80;43.68
72798;BME280;61084;55.816;37.036;2022-07-06T08:57:54;99340.44;;;31.79;43.38
72798;BME280;61084;55.816;37.036;2022-07-06T09:00:21;99342.50;;;31.84;43.64
72798;BME280;61084;55.816;37.036;2022-07-06T09:02:48;99335.56;;;31.94;43.11
72798;BME280;61084;55.816;37.036;2022-07-06T09:05:17;99340.59;;;32.16;43.55
72798;BME280;61084;55.816;37.036;2022-07-06T09:07:45;99342.91;;;32.19;43.37
72798;BME280;61084;55.816;37.036;2022-07-06T09:10:14;99344.94;;;32.23;43.12
72798;BME280;61084;55.816;37.036;2022-07-06T09:12:42;99328.19;;;32.02;42.04
72798;BME280;61084;55.816;37.036;2022-07-06T09:15:08;99333.84;;;31.93;42.38
72798;BME280;61084;55.816;37.036;2022-07-06T09:17:37;99335.88;;;32.05;42.59
72798;BME280;61084;55.816;37.036;2022-07-06T09:20:07;99323.41;;;32.22;42.32
72798;BME280;61084;55.816;37.036;2022-07-06T09:22:34;99337.06;;;32.40;42.94
72798;BME280;61084;55.816;37.036;2022-07-06T09:25:06;99331.53;;;32.53;42.76
72798;BME280;61084;55.816;37.036;2022-07-06T09:27:37;99323.81;;;32.50;40.69
72798;BME280;61084;55.816;37.036;2022-07-06T09:30:04;99320.50;;;32.48;41.70
72798;BME280;61084;55.816;37.036;2022-07-06T09:32:30;99324.69;;;32.44;41.08
72798;BME280;61084;55.816;37.036;2022-07-06T09:34:56;99324.69;;;32.44;41.45
72798;BME280;61084;55.816;37.036;2022-07-06T09:37:22;99324.66;;;32.50;41.54
72798;BME280;61084;55.816;37.036;2022-07-06T09:39:51;99327.84;;;32.41;41.67
72798;BME280;61084;55.816;37.036;2022-07-06T09:42:24;99334.03;;;32.30;40.82
72798;BME280;61084;55.816;37.036;2022-07-06T09:44:50;99323.66;;;32.20;40.84
72798;BME280;61084;55.816;37.036;2022-07-06T09:47:17;99324.41;;;32.03;41.30
72798;BME280;61084;55.816;37.036;2022-07-06T09:49:45;99322.38;;;31.91;41.42
72798;BME280;61084;55.816;37.036;2022-07-06T09:52:11;99325.34;;;31.83;41.04
72798;BME280;61084;55.816;37.036;2022-07-06T09:54:39;99330.38;;;31.80;41.57
72798;BME280;61084;55.816;37.036;2022-07-06T09:57:06;99329.03;;;31.64;41.08
72798;BME280;61084;55.816;37.036;2022-07-06T09:59:33;99331.81;;;31.51;40.95
72798;BME280;61084;55.816;37.036;2022-07-06T10:02:03;99324.97;;;31.42;41.13
72798;BME280;61084;55.816;37.036;2022-07-06T10:04:29;99323.28;;;31.35;41.50
72798;BME280;61084;55.816;37.036;2022-07-06T10:06:57;99320.03;;;31.13;42.30
72798;BME280;61084;55.816;37.036;2022-07-06T10:09:25;99325.13;;;30.96;42.40
72798;BME280;61084;55.816;37.036;2022-07-06T10:11:57;99317.84;;;30.84;42.94
72798;BME280;61084;55.816;37.036;2022-07-06T10:14:30;99305.31;;;30.89;42.47
72798;BME280;61084;55.816;37.036;2022-07-06T10:16:57;99305.69;;;30.99;42.22
72798;BME280;61084;55.816;37.036;2022-07-06T10:19:24;99308.00;;;31.02;42.19
72798;BME280;61084;55.816;37.036;2022-07-06T10:21:50;99312.09;;;31.18;42.19
72798;BME280;61084;55.816;37.036;2022-07-06T10:24:20;99308.28;;;31.32;42.32
72798;BME280;61084;55.816;37.036;2022-07-06T10:26:47;99304.28;;;31.41;41.35
72798;BME280;61084;55.816;37.036;2022-07-06T10:29:13;99303.81;;;31.57;41.21
72798;BME280;61084;55.816;37.036;2022-07-06T10:31:42;99303.50;;;31.72;41.39
72798;BME280;61084;55.816;37.036;2022-07-06T10:34:11;99299.69;;;31.79;40.89
72798;BME280;61084;55.816;37.036;2022-07-06T10:36:42;99298.75;;;31.92;40.82
72798;BME280;61084;55.816;37.036;2022-07-06T10:39:10;99292.47;;;31.98;40.10
72798;BME280;61084;55.816;37.036;2022-07-06T10:41:54;99291.16;;;32.07;40.98
72798;BME280;61084;55.816;37.036;2022-07-06T10:44:25;99286.56;;;32.08;39.61
72798;BME280;61084;55.816;37.036;2022-07-06T10:46:58;99279.44;;;32.07;40.32
72798;BME280;61084;55.816;37.036;2022-07-06T10:49:26;99281.66;;;32.16;40.17
72798;BME280;61084;55.816;37.036;2022-07-06T10:51:52;99267.97;;;32.29;40.82
72798;BME280;61084;55.816;37.036;2022-07-06T10:54:19;99266.13;;;32.48;40.60
72798;BME280;61084;55.816;37.036;2022-07-06T10:56:48;99267.66;;;32.62;40.26
72798;BME280;61084;55.816;37.036;2022-07-06T10:59:19;99264.31;;;32.78;37.40
72798;BME280;61084;55.816;37.036;2022-07-06T11:04:42;99263.19;;;32.86;39.80
72798;BME280;61084;55.816;37.036;2022-07-06T11:07:16;99261.16;;;32.81;39.04
72798;BME280;61084;55.816;37.036;2022-07-06T11:09:56;99262.06;;;32.75;37.52
72798;BME280;61084;55.816;37.036;2022-07-06T11:12:22;99253.75;;;32.70;37.78
72798;BME280;61084;55.816;37.036;2022-07-06T11:14:49;99257.00;;;32.60;39.22
72798;BME280;61084;55.816;37.036;2022-07-06T11:17:16;99256.38;;;32.58;38.84
72798;BME280;61084;55.816;37.036;2022-07-06T11:19:56;99259.63;;;32.67;38.34
72798;BME280;61084;55.816;37.036;2022-07-06T11:22:23;99253.47;;;32.60;39.41
72798;BME280;61084;55.816;37.036;2022-07-06T11:24:52;99251.47;;;32.67;39.75
72798;BME280;61084;55.816;37.036;2022-07-06T11:27:18;99254.28;;;32.60;39.25
72798;BME280;61084;55.816;37.036;2022-07-06T11:29:44;99253.22;;;32.61;39.77
72798;BME280;61084;55.816;37.036;2022-07-06T11:32:12;99248.69;;;32.73;39.98
72798;BME280;61084;55.816;37.036;2022-07-06T11:34:43;99253.44;;;32.78;38.70
72798;BME280;61084;55.816;37.036;2022-07-06T11:37:14;99243.47;;;32.72;38.30
72798;BME280;61084;55.816;37.036;2022-07-06T11:39:44;99252.03;;;32.57;38.55
72798;BME280;61084;55.816;37.036;2022-07-06T11:42:13;99247.09;;;32.48;38.42
72798;BME280;61084;55.816;37.036;2022-07-06T11:44:40;99251.84;;;32.52;38.47
72798;BME280;61084;55.816;37.036;2022-07-06T11:47:08;99249.66;;;32.61;38.74
72798;BME280;61084;55.816;37.036;2022-07-06T11:49:35;99235.94;;;32.56;38.43
72798;BME280;61084;55.816;37.036;2022-07-06T11:52:09;99239.94;;;32.53;38.15
72798;BME280;61084;55.816;37.036;2022-07-06T11:54:36;99245.16;;;32.55;39.39
72798;BME280;61084;55.816;37.036;2022-07-06T11:57:02;99249.19;;;32.46;38.95
72798;BME280;61084;55.816;37.036;2022-07-06T11:59:37;99244.41;;;32.41;39.19
72798;BME280;61084;55.816;37.036;2022-07-06T12:02:06;99247.44;;;32.33;39.08
72798;BME280;61084;55.816;37.036;2022-07-06T12:04:35;99239.09;;;32.28;39.20
72798;BME280;61084;55.816;37.036;2022-07-06T12:07:09;99246.44;;;32.28;39.28
72798;BME280;61084;55.816;37.036;2022-07-06T12:09:39;99242.72;;;32.22;39.31
72798;BME280;61084;55.816;37.036;2022-07-06T12:12:06;99240.69;;;32.18;39.14
72798;BME280;61084;55.816;37.036;2022-07-06T12:14:34;99240.91;;;32.16;39.11
72798;BME280;61084;55.816;37.036;2022-07-06T12:17:18;99243.41;;;32.18;39.49
72798;BME280;61084;55.816;37.036;2022-07-06T12:19:44;99240.84;;;32.23;39.23
72798;BME280;61084;55.816;37.036;2022-07-06T12:22:10;99242.50;;;32.24;39.92
72798;BME280;61084;55.816;37.036;2022-07-06T12:24:37;99240.31;;;32.32;39.59
72798;BME280;61084;55.816;37.036;2022-07-06T12:27:13;99240.63;;;32.49;39.32
72798;BME280;61084;55.816;37.036;2022-07-06T12:29:39;99226.81;;;32.68;39.24
72798;BME280;61084;55.816;37.036;2022-07-06T12:32:05;99227.53;;;32.76;38.11
72798;BME280;61084;55.816;37.036;2022-07-06T12:34:31;99228.25;;;32.71;37.93
72798;BME280;61084;55.816;37.036;2022-07-06T12:37:06;99226.19;;;32.66;38.00
72798;BME280;61084;55.816;37.036;2022-07-06T12:39:44;99220.44;;;32.56;37.38
72798;BME280;61084;55.816;37.036;2022-07-06T12:42:10;99210.31;;;32.63;38.84
72798;BME280;61084;55.816;37.036;2022-07-06T12:44:43;99209.63;;;32.86;37.88
72798;BME280;61084;55.816;37.036;2022-07-06T12:47:10;99204.78;;;33.06;38.32
72798;BME280;61084;55.816;37.036;2022-07-06T12:49:37;99204.31;;;33.09;37.46
72798;BME280;61084;55.816;37.036;2022-07-06T12:54:34;99201.84;;;32.90;36.99
72798;BME280;61084;55.816;37.036;2022-07-06T12:59:29;99209.63;;;33.04;38.43
72798;BME280;61084;55.816;37.036;2022-07-06T13:01:56;99205.34;;;33.26;38.31